createdAt,value
2019-04-07T12:17:24.518Z,21.30
2019-04-07T12:20:17.656Z,21.40
2019-04-07T12:23:10.698Z,21.50
2019-04-07T12:26:16.061Z,21.60
2019-04-07T12:29:09.174Z,21.70
2019-04-07T12:32:15.888Z,21.80
2019-04-07T12:35:09.368Z,21.80
2019-04-07T12:38:12.275Z,21.90
2019-04-07T12:41:15.046Z,22.00
2019-04-07T12:43:59.259Z,22.10
2019-04-07T12:47:03.194Z,22.20
2019-04-07T12:49:53.170Z,22.50
2019-04-07T12:52:40.958Z,22.60
2019-04-07T12:55:44.017Z,22.60
2019-04-07T12:58:50.524Z,22.50
2019-04-07T13:01:54.058Z,22.30
2019-04-07T13:04:55.991Z,22.20
2019-04-07T13:07:56.501Z,21.90
2019-04-07T13:10:43.605Z,21.60
2019-04-07T13:13:42.574Z,21.20
2019-04-07T13:16:39.182Z,20.90
2019-04-07T13:19:27.463Z,20.70
2019-04-07T13:22:15.136Z,20.50
2019-04-07T13:25:04.502Z,20.50
2019-04-07T13:27:57.752Z,20.50
2019-04-07T13:30:56.927Z,20.50
2019-04-07T13:33:50.077Z,20.50
2019-04-07T13:36:51.664Z,20.40
2019-04-07T13:39:40.758Z,20.20
2019-04-07T13:42:36.810Z,20.00
2019-04-07T13:45:26.517Z,19.90
2019-04-07T13:48:25.876Z,19.70
2019-04-07T13:51:19.730Z,19.60
2019-04-07T13:54:06.964Z,19.50
2019-04-07T13:57:11.274Z,19.30
2019-04-07T13:59:58.879Z,19.30
2019-04-07T14:03:03.149Z,19.10
2019-04-07T14:05:55.510Z,19.10
2019-04-07T14:08:42.698Z,18.90
2019-04-07T14:12:01.596Z,18.80
2019-04-07T14:14:42.595Z,18.80
2019-04-07T14:17:45.027Z,18.80
2019-04-07T14:20:35.234Z,18.80
2019-04-07T14:23:41.000Z,18.80
2019-04-07T14:26:34.616Z,18.80
2019-04-07T14:29:21.989Z,19.20
2019-04-07T14:32:18.462Z,20.10
2019-04-07T14:35:22.603Z,21.10
2019-04-07T14:38:26.563Z,22.10
2019-04-07T14:41:31.246Z,22.70
2019-04-07T14:44:21.440Z,23.40
2019-04-07T14:47:08.821Z,23.80
2019-04-07T14:50:02.009Z,24.10
2019-04-07T14:52:55.026Z,24.40
2019-04-07T14:56:04.272Z,24.60
2019-04-07T14:58:56.279Z,24.40
2019-04-07T15:01:53.644Z,24.10
2019-04-07T15:04:46.656Z,24.30
2019-04-07T15:07:50.304Z,24.10
2019-04-07T15:10:37.908Z,24.20
2019-04-07T15:13:28.084Z,24.10
2019-04-07T15:16:11.948Z,23.90
2019-04-07T15:18:57.502Z,23.80
2019-04-07T15:21:44.260Z,23.60
2019-04-07T15:24:29.560Z,23.60
2019-04-07T15:27:15.507Z,23.40
2019-04-07T15:30:02.352Z,23.20
2019-04-07T15:32:48.386Z,22.90
2019-04-07T15:35:34.123Z,22.70
2019-04-07T15:38:23.863Z,22.50
2019-04-07T15:41:10.723Z,23.00
2019-04-07T15:43:55.168Z,23.70
2019-04-07T15:46:41.529Z,24.60
2019-04-07T15:49:28.306Z,24.80
2019-04-07T15:52:14.109Z,24.80
2019-04-07T15:54:59.624Z,24.30
2019-04-07T15:57:44.772Z,23.70
2019-04-07T16:00:32.311Z,22.90
2019-04-07T16:03:17.245Z,22.40
2019-04-07T16:06:03.433Z,21.80
2019-04-07T16:08:51.127Z,21.40
2019-04-07T16:11:36.963Z,21.10
2019-04-07T16:14:23.010Z,20.90
2019-04-07T16:17:10.506Z,20.70
2019-04-07T16:19:56.642Z,20.60
2019-04-07T16:22:44.183Z,20.40
2019-04-07T16:25:29.158Z,20.10
2019-04-07T16:28:16.118Z,19.90
2019-04-07T16:31:01.565Z,19.80
2019-04-07T16:33:46.977Z,19.60
2019-04-07T16:36:32.519Z,19.40
2019-04-07T16:39:17.889Z,19.30
2019-04-07T16:42:04.254Z,19.20
2019-04-07T16:44:49.411Z,19.10
2019-04-07T16:47:37.012Z,19.00
2019-04-07T16:50:22.982Z,19.00
2019-04-07T16:53:09.218Z,19.00
2019-04-07T16:55:55.654Z,19.00
2019-04-07T16:58:41.593Z,19.00
2019-04-07T17:01:26.856Z,19.00
2019-04-07T17:04:12.799Z,18.90
2019-04-07T17:07:03.308Z,18.90
2019-04-07T17:09:46.712Z,18.80
2019-04-07T17:12:32.354Z,18.70
2019-04-07T17:15:19.569Z,18.60
2019-04-07T17:18:08.413Z,18.50
2019-04-07T17:20:55.198Z,18.40
2019-04-07T17:23:40.917Z,18.30
2019-04-07T17:26:26.435Z,18.20
2019-04-07T17:29:11.433Z,18.00
2019-04-07T17:32:01.205Z,17.90
2019-04-07T17:34:44.629Z,17.80
2019-04-07T17:37:29.856Z,17.70
2019-04-07T17:40:17.656Z,17.60
2019-04-07T17:43:25.785Z,17.50
2019-04-07T17:46:25.805Z,17.40
2019-04-07T17:49:30.889Z,17.30
2019-04-07T17:52:33.734Z,17.20
2019-04-07T17:55:28.003Z,17.20
2019-04-07T17:58:18.935Z,17.10
2019-04-07T18:01:24.540Z,17.00
2019-04-07T18:04:14.639Z,17.00
2019-04-07T18:07:05.775Z,16.90
2019-04-07T18:10:01.067Z,16.80
2019-04-07T18:12:49.903Z,16.80
2019-04-07T18:15:40.440Z,16.80
2019-04-07T18:18:34.573Z,16.80
2019-04-07T18:21:39.753Z,16.70
2019-04-07T18:24:30.637Z,16.70
2019-04-07T18:27:27.646Z,16.70
2019-04-07T18:30:14.800Z,16.60
2019-04-07T18:33:02.068Z,16.60
2019-04-07T18:36:03.007Z,16.60
2019-04-07T18:38:54.911Z,16.50
2019-04-07T18:41:45.769Z,16.50
2019-04-07T18:44:40.023Z,16.40
2019-04-07T18:47:34.923Z,16.40
2019-04-07T18:50:23.844Z,16.40
2019-04-07T18:53:26.187Z,16.40
2019-04-07T18:56:29.174Z,16.30
2019-04-07T18:59:33.414Z,16.30
2019-04-07T19:02:23.286Z,16.20
2019-04-07T19:05:14.445Z,16.10
2019-04-07T19:08:08.163Z,16.10
2019-04-07T19:11:10.782Z,16.00
2019-04-07T19:13:48.007Z,16.00
2019-04-07T19:16:53.194Z,15.90
2019-04-07T19:19:57.411Z,15.80
2019-04-07T19:23:00.206Z,15.80
2019-04-07T19:25:54.377Z,15.70
2019-04-07T19:28:42.339Z,15.70
2019-04-07T19:31:49.837Z,15.70
2019-04-07T19:34:35.580Z,15.60
2019-04-07T19:37:32.516Z,15.50
2019-04-07T19:40:36.707Z,15.50
2019-04-07T19:43:41.862Z,15.50
2019-04-07T19:46:40.716Z,15.40
2019-04-07T19:49:37.404Z,15.40
2019-04-07T19:52:34.102Z,15.30
2019-04-07T19:55:22.624Z,15.30
2019-04-07T19:58:26.195Z,15.20
2019-04-07T20:01:14.808Z,15.20
2019-04-07T20:04:18.643Z,15.20
2019-04-07T20:07:21.091Z,15.10
2019-04-07T20:10:08.836Z,15.10
2019-04-07T20:13:14.197Z,15.00
2019-04-07T20:16:02.946Z,15.00
2019-04-07T20:19:06.909Z,14.90
2019-04-07T20:22:06.922Z,14.90
2019-04-07T20:25:15.957Z,14.80
2019-04-07T20:28:02.219Z,14.70
2019-04-07T20:31:06.238Z,14.70
2019-04-07T20:33:53.542Z,14.50
2019-04-07T20:36:51.752Z,14.50
2019-04-07T20:39:45.829Z,14.40
2019-04-07T20:42:33.136Z,14.30
2019-04-07T20:45:29.275Z,14.20
2019-04-07T20:48:22.845Z,14.10
2019-04-07T20:51:10.345Z,13.90
2019-04-07T20:54:03.904Z,13.80
2019-04-07T20:57:03.244Z,13.70
2019-04-07T20:59:56.935Z,13.60
2019-04-07T21:03:06.444Z,13.50
2019-04-07T21:05:56.283Z,13.40
2019-04-07T21:08:43.500Z,13.30
2019-04-07T21:11:47.472Z,13.20
2019-04-07T21:14:41.081Z,13.10
2019-04-07T21:17:45.007Z,13.10
2019-04-07T21:20:50.424Z,12.90
2019-04-07T21:23:38.162Z,12.80
2019-04-07T21:26:27.270Z,12.60
2019-04-07T21:29:18.106Z,12.50
2019-04-07T21:32:09.601Z,12.50
2019-04-07T21:35:00.754Z,12.30
2019-04-07T21:37:51.916Z,12.30
2019-04-07T21:40:51.622Z,12.30
2019-04-07T21:43:46.658Z,12.20
2019-04-07T21:46:39.484Z,12.20
2019-04-07T21:49:35.379Z,12.10
2019-04-07T21:52:28.133Z,12.00
2019-04-07T21:55:31.751Z,11.80
2019-04-07T21:58:28.013Z,11.80
2019-04-07T22:01:21.392Z,11.70
2019-04-07T22:04:25.376Z,11.70
2019-04-07T22:07:13.268Z,11.70
2019-04-07T22:10:00.399Z,11.70
2019-04-07T22:12:45.354Z,11.60
2019-04-07T22:15:42.112Z,11.60
2019-04-07T22:18:17.728Z,11.40
2019-04-07T22:21:03.372Z,11.30
2019-04-07T22:23:48.582Z,11.30
2019-04-07T22:26:34.924Z,11.30
2019-04-07T22:29:20.392Z,11.20
2019-04-07T22:32:05.744Z,11.20
2019-04-07T22:34:52.378Z,11.20
2019-04-07T22:37:37.726Z,11.10
2019-04-07T22:40:23.937Z,11.00
2019-04-07T22:43:11.296Z,11.00
2019-04-07T22:46:07.074Z,10.90
2019-04-07T22:48:43.877Z,10.80
2019-04-07T22:51:29.227Z,10.80
2019-04-07T22:54:14.300Z,10.80
2019-04-07T22:57:00.641Z,10.80
2019-04-07T22:59:45.871Z,10.80
2019-04-07T23:02:30.667Z,10.70
2019-04-07T23:05:15.642Z,10.70
2019-04-07T23:08:01.762Z,10.70
2019-04-07T23:10:47.790Z,10.70
2019-04-07T23:13:33.445Z,10.60
2019-04-07T23:16:18.982Z,10.50
2019-04-07T23:19:05.314Z,10.40
2019-04-07T23:21:51.270Z,10.40
2019-04-07T23:24:37.027Z,10.30
2019-04-07T23:27:22.158Z,10.30
2019-04-07T23:30:08.836Z,10.30
2019-04-07T23:32:55.681Z,10.20
2019-04-07T23:35:41.303Z,10.10
2019-04-07T23:38:26.163Z,10.10
2019-04-07T23:41:11.670Z,10.10
2019-04-07T23:43:59.341Z,10.10
2019-04-07T23:46:44.678Z,10.00
2019-04-07T23:49:30.067Z,9.90
2019-04-07T23:52:15.011Z,9.90
2019-04-07T23:55:00.334Z,9.70
2019-04-07T23:57:45.334Z,9.50
